sensor_id;sensor_type;location;lat;lon;timestamp;pressure;altitude;pressure_sealevel;temperature;humidity
38400;BME280;24180;42.676;23.320;2022-12-18T00:02:04;95463.78;;;6.06;100.00
38400;BME280;24180;42.676;23.320;2022-12-18T00:04:30;95446.97;;;5.88;100.00
38400;BME280;24180;42.676;23.320;2022-12-18T00:06:55;95441.78;;;5.76;100.00
38400;BME280;24180;42.676;23.320;2022-12-18T00:09:21;95466.97;;;5.97;100.00
38400;BME280;24180;42.676;23.320;2022-12-18T00:11:46;95463.13;;;5.90;100.00
38400;BME280;24180;42.676;23.320;2022-12-18T00:14:12;95475.13;;;5.90;100.00
38400;BME280;24180;42.676;23.320;2022-12-18T00:16:39;95474.50;;;5.86;100.00
38400;BME280;24180;42.676;23.320;2022-12-18T00:19:05;95440.06;;;5.62;100.00
38400;BME280;24180;42.676;23.320;2022-12-18T00:21:32;95467.72;;;5.85;100.00
38400;BME280;24180;42.676;23.320;2022-12-18T00:23:58;95462.81;;;5.68;100.00
38400;BME280;24180;42.676;23.320;2022-12-18T00:26:32;95465.25;;;5.57;100.00
38400;BME280;24180;42.676;23.320;2022-12-18T00:29:00;95491.16;;;5.66;100.00
38400;BME280;24180;42.676;23.320;2022-12-18T00:31:26;95431.28;;;5.25;100.00
38400;BME280;24180;42.676;23.320;2022-12-18T00:33:54;95479.31;;;5.37;100.00
38400;BME280;24180;42.676;23.320;2022-12-18T00:36:23;95511.75;;;5.38;100.00
38400;BME280;24180;42.676;23.320;2022-12-18T00:38:49;95471.81;;;5.20;100.00
38400;BME280;24180;42.676;23.320;2022-12-18T00:41:16;95503.59;;;5.46;100.00
38400;BME280;24180;42.676;23.320;2022-12-18T00:44:01;95502.31;;;5.53;100.00
38400;BME280;24180;42.676;23.320;2022-12-18T00:46:27;95475.56;;;5.29;100.00
38400;BME280;24180;42.676;23.320;2022-12-18T00:48:53;95509.75;;;5.43;100.00
38400;BME280;24180;42.676;23.320;2022-12-18T00:51:18;95517.91;;;5.50;100.00
38400;BME280;24180;42.676;23.320;2022-12-18T00:53:43;95495.66;;;5.36;100.00
38400;BME280;24180;42.676;23.320;2022-12-18T00:56:09;95485.56;;;5.19;100.00
38400;BME280;24180;42.676;23.320;2022-12-18T00:58:34;95530.09;;;5.46;100.00
38400;BME280;24180;42.676;23.320;2022-12-18T01:00:59;95527.28;;;5.37;100.00
38400;BME280;24180;42.676;23.320;2022-12-18T01:03:25;95488.53;;;5.13;100.00
38400;BME280;24180;42.676;23.320;2022-12-18T01:05:50;95515.19;;;5.25;100.00
38400;BME280;24180;42.676;23.320;2022-12-18T01:08:16;95499.88;;;4.95;100.00
38400;BME280;24180;42.676;23.320;2022-12-18T01:10:41;95535.44;;;5.15;100.00
38400;BME280;24180;42.676;23.320;2022-12-18T01:13:07;95540.59;;;5.15;100.00
38400;BME280;24180;42.676;23.320;2022-12-18T01:15:32;95536.94;;;5.05;100.00
38400;BME280;24180;42.676;23.320;2022-12-18T01:17:57;95544.63;;;5.05;100.00
38400;BME280;24180;42.676;23.320;2022-12-18T01:20:23;95523.06;;;4.79;100.00
38400;BME280;24180;42.676;23.320;2022-12-18T01:22:48;95544.75;;;4.73;100.00
38400;BME280;24180;42.676;23.320;2022-12-18T01:25:14;95550.81;;;4.72;100.00
38400;BME280;24180;42.676;23.320;2022-12-18T01:27:39;95492.03;;;4.40;100.00
38400;BME280;24180;42.676;23.320;2022-12-18T01:30:05;95527.50;;;4.61;100.00
38400;BME280;24180;42.676;23.320;2022-12-18T01:32:31;95562.63;;;4.75;100.00
38400;BME280;24180;42.676;23.320;2022-12-18T01:34:56;95522.09;;;4.52;100.00
38400;BME280;24180;42.676;23.320;2022-12-18T01:37:22;95520.38;;;4.52;100.00
38400;BME280;24180;42.676;23.320;2022-12-18T01:39:47;95532.81;;;4.58;100.00
38400;BME280;24180;42.676;23.320;2022-12-18T01:42:15;95563.28;;;4.79;100.00
38400;BME280;24180;42.676;23.320;2022-12-18T01:49:52;95528.59;;;4.43;100.00
38400;BME280;24180;42.676;23.320;2022-12-18T01:52:19;95559.13;;;4.62;100.00
38400;BME280;24180;42.676;23.320;2022-12-18T01:54:47;95529.09;;;4.34;100.00
38400;BME280;24180;42.676;23.320;2022-12-18T01:57:14;95524.34;;;4.28;100.00
38400;BME280;24180;42.676;23.320;2022-12-18T01:59:41;95534.59;;;4.28;100.00
38400;BME280;24180;42.676;23.320;2022-12-18T02:02:08;95559.16;;;4.46;100.00
38400;BME280;24180;42.676;23.320;2022-12-18T02:04:33;95531.13;;;4.29;100.00
38400;BME280;24180;42.676;23.320;2022-12-18T02:07:26;95567.63;;;4.48;100.00
38400;BME280;24180;42.676;23.320;2022-12-18T02:10:23;95572.75;;;4.48;100.00
38400;BME280;24180;42.676;23.320;2022-12-18T02:13:24;95569.94;;;4.53;100.00
38400;BME280;24180;42.676;23.320;2022-12-18T02:18:27;95538.06;;;4.27;100.00
38400;BME280;24180;42.676;23.320;2022-12-18T02:28:45;95583.44;;;4.41;100.00
38400;BME280;24180;42.676;23.320;2022-12-18T02:31:17;95582.44;;;4.43;100.00
38400;BME280;24180;42.676;23.320;2022-12-18T02:33:48;95557.28;;;4.34;100.00
38400;BME280;24180;42.676;23.320;2022-12-18T02:36:16;95590.03;;;4.45;100.00
38400;BME280;24180;42.676;23.320;2022-12-18T02:38:43;95588.56;;;4.41;100.00
38400;BME280;24180;42.676;23.320;2022-12-18T02:41:10;95571.34;;;4.13;100.00
38400;BME280;24180;42.676;23.320;2022-12-18T02:43:36;95561.88;;;4.13;100.00
38400;BME280;24180;42.676;23.320;2022-12-18T02:46:32;95602.22;;;4.41;100.00
38400;BME280;24180;42.676;23.320;2022-12-18T02:49:10;95604.22;;;4.36;100.00
38400;BME280;24180;42.676;23.320;2022-12-18T03:00:23;95564.72;;;4.09;100.00
38400;BME280;24180;42.676;23.320;2022-12-18T03:05:50;95605.84;;;4.21;100.00
38400;BME280;24180;42.676;23.320;2022-12-18T03:08:20;95606.22;;;4.15;100.00
38400;BME280;24180;42.676;23.320;2022-12-18T03:10:56;95608.94;;;4.12;100.00
38400;BME280;24180;42.676;23.320;2022-12-18T03:13:28;95575.78;;;3.94;100.00
38400;BME280;24180;42.676;23.320;2022-12-18T03:15:58;95610.50;;;4.15;100.00
38400;BME280;24180;42.676;23.320;2022-12-18T03:18:30;95585.47;;;4.04;100.00
38400;BME280;24180;42.676;23.320;2022-12-18T03:21:00;95612.75;;;4.21;100.00
38400;BME280;24180;42.676;23.320;2022-12-18T03:23:32;95563.56;;;3.99;100.00
38400;BME280;24180;42.676;23.320;2022-12-18T03:26:05;95579.19;;;3.94;100.00
38400;BME280;24180;42.676;23.320;2022-12-18T03:28:35;95615.81;;;4.12;100.00
38400;BME280;24180;42.676;23.320;2022-12-18T03:31:04;95583.06;;;3.86;100.00
38400;BME280;24180;42.676;23.320;2022-12-18T03:33:36;95601.75;;;3.88;100.00
38400;BME280;24180;42.676;23.320;2022-12-18T03:36:03;95631.38;;;4.09;100.00
38400;BME280;24180;42.676;23.320;2022-12-18T03:38:29;95610.94;;;3.92;100.00
38400;BME280;24180;42.676;23.320;2022-12-18T03:41:10;95611.78;;;3.92;100.00
38400;BME280;24180;42.676;23.320;2022-12-18T03:43:50;95657.72;;;4.11;100.00
38400;BME280;24180;42.676;23.320;2022-12-18T03:46:30;95629.59;;;3.94;100.00
38400;BME280;24180;42.676;23.320;2022-12-18T03:49:09;95656.66;;;4.15;100.00
38400;BME280;24180;42.676;23.320;2022-12-18T03:51:37;95681.44;;;4.14;100.00
38400;BME280;24180;42.676;23.320;2022-12-18T03:54:08;95661.34;;;4.07;100.00
38400;BME280;24180;42.676;23.320;2022-12-18T03:56:38;95644.66;;;4.00;100.00
38400;BME280;24180;42.676;23.320;2022-12-18T03:59:05;95660.28;;;4.11;100.00
38400;BME280;24180;42.676;23.320;2022-12-18T04:01:35;95666.47;;;4.07;100.00
38400;BME280;24180;42.676;23.320;2022-12-18T04:04:03;95644.72;;;3.83;100.00
38400;BME280;24180;42.676;23.320;2022-12-18T04:06:30;95651.50;;;3.84;100.00
38400;BME280;24180;42.676;23.320;2022-12-18T04:08:58;95686.75;;;3.96;100.00
38400;BME280;24180;42.676;23.320;2022-12-18T04:11:24;95677.31;;;3.96;100.00
38400;BME280;24180;42.676;23.320;2022-12-18T04:13:49;95684.34;;;3.93;100.00
38400;BME280;24180;42.676;23.320;2022-12-18T04:16:14;95698.72;;;3.95;100.00
38400;BME280;24180;42.676;23.320;2022-12-18T04:18:40;95709.03;;;3.94;100.00
38400;BME280;24180;42.676;23.320;2022-12-18T04:21:05;95676.03;;;3.72;100.00
38400;BME280;24180;42.676;23.320;2022-12-18T04:23:31;95712.38;;;3.96;100.00
38400;BME280;24180;42.676;23.320;2022-12-18T04:25:56;95703.78;;;3.97;100.00
38400;BME280;24180;42.676;23.320;2022-12-18T04:28:21;95686.63;;;3.82;100.00
38400;BME280;24180;42.676;23.320;2022-12-18T04:30:48;95716.50;;;4.14;100.00
38400;BME280;24180;42.676;23.320;2022-12-18T04:33:14;95698.47;;;3.84;100.00
38400;BME280;24180;42.676;23.320;2022-12-18T04:35:41;95724.56;;;3.91;100.00
38400;BME280;24180;42.676;23.320;2022-12-18T04:38:07;95729.53;;;3.94;100.00
38400;BME280;24180;42.676;23.320;2022-12-18T04:40:37;95723.00;;;3.88;100.00
38400;BME280;24180;42.676;23.320;2022-12-18T04:43:03;95681.59;;;3.47;100.00
38400;BME280;24180;42.676;23.320;2022-12-18T04:45:30;95726.03;;;3.79;100.00
38400;BME280;24180;42.676;23.320;2022-12-18T04:47:57;95739.28;;;3.87;100.00
38400;BME280;24180;42.676;23.320;2022-12-18T04:50:23;95749.38;;;3.90;100.00
38400;BME280;24180;42.676;23.320;2022-12-18T04:52:48;95754.66;;;3.87;100.00
38400;BME280;24180;42.676;23.320;2022-12-18T04:55:14;95724.19;;;3.65;100.00
38400;BME280;24180;42.676;23.320;2022-12-18T04:57:39;95772.53;;;3.89;100.00
38400;BME280;24180;42.676;23.320;2022-12-18T05:00:05;95740.16;;;3.53;100.00
38400;BME280;24180;42.676;23.320;2022-12-18T05:02:31;95779.22;;;3.74;100.00
38400;BME280;24180;42.676;23.320;2022-12-18T05:04:57;95766.16;;;3.63;100.00
38400;BME280;24180;42.676;23.320;2022-12-18T05:07:22;95747.28;;;3.48;100.00
38400;BME280;24180;42.676;23.320;2022-12-18T05:09:47;95751.63;;;3.46;100.00
38400;BME280;24180;42.676;23.320;2022-12-18T05:12:13;95737.94;;;3.47;100.00
38400;BME280;24180;42.676;23.320;2022-12-18T05:14:38;95754.78;;;3.51;100.00
38400;BME280;24180;42.676;23.320;2022-12-18T05:17:04;95783.56;;;3.56;100.00
38400;BME280;24180;42.676;23.320;2022-12-18T05:19:29;95766.25;;;3.44;100.00
38400;BME280;24180;42.676;23.320;2022-12-18T05:21:54;95772.88;;;3.48;100.00
38400;BME280;24180;42.676;23.320;2022-12-18T05:24:20;95791.09;;;3.59;100.00
38400;BME280;24180;42.676;23.320;2022-12-18T05:26:45;95799.66;;;3.58;100.00
38400;BME280;24180;42.676;23.320;2022-12-18T05:29:11;95804.56;;;3.46;100.00
38400;BME280;24180;42.676;23.320;2022-12-18T05:31:38;95762.78;;;3.11;100.00
38400;BME280;24180;42.676;23.320;2022-12-18T05:34:04;95809.63;;;3.47;100.00
38400;BME280;24180;42.676;23.320;2022-12-18T05:36:29;95817.75;;;3.55;100.00
38400;BME280;24180;42.676;23.320;2022-12-18T05:38:55;95783.25;;;3.28;100.00
38400;BME280;24180;42.676;23.320;2022-12-18T05:41:20;95803.97;;;3.23;100.00
38400;BME280;24180;42.676;23.320;2022-12-18T05:43:46;95822.41;;;3.47;100.00
38400;BME280;24180;42.676;23.320;2022-12-18T05:46:13;95810.50;;;3.46;100.00
38400;BME280;24180;42.676;23.320;2022-12-18T05:48:39;95819.25;;;3.42;100.00
38400;BME280;24180;42.676;23.320;2022-12-18T05:51:10;95811.34;;;3.47;100.00
38400;BME280;24180;42.676;23.320;2022-12-18T05:53:37;95832.50;;;3.50;100.00
38400;BME280;24180;42.676;23.320;2022-12-18T05:56:05;95828.88;;;3.20;100.00
38400;BME280;24180;42.676;23.320;2022-12-18T05:58:31;95849.88;;;3.26;100.00
38400;BME280;24180;42.676;23.320;2022-12-18T06:00:57;95846.78;;;3.20;100.00
38400;BME280;24180;42.676;23.320;2022-12-18T06:03:23;95820.88;;;3.09;100.00
38400;BME280;24180;42.676;23.320;2022-12-18T06:05:49;95817.63;;;3.05;100.00
38400;BME280;24180;42.676;23.320;2022-12-18T06:08:14;95856.56;;;3.29;100.00
38400;BME280;24180;42.676;23.320;2022-12-18T06:10:40;95857.50;;;3.28;100.00
38400;BME280;24180;42.676;23.320;2022-12-18T06:13:06;95860.78;;;3.30;100.00
38400;BME280;24180;42.676;23.320;2022-12-18T06:15:32;95836.09;;;3.12;100.00
38400;BME280;24180;42.676;23.320;2022-12-18T06:17:58;95854.72;;;3.33;100.00
38400;BME280;24180;42.676;23.320;2022-12-18T06:20:23;95863.09;;;3.36;100.00
38400;BME280;24180;42.676;23.320;2022-12-18T06:22:49;95842.66;;;3.35;100.00
38400;BME280;24180;42.676;23.320;2022-12-18T06:25:15;95834.31;;;3.31;100.00
38400;BME280;24180;42.676;23.320;2022-12-18T06:27:40;95846.34;;;3.29;100.00
38400;BME280;24180;42.676;23.320;2022-12-18T06:30:06;95870.25;;;3.47;100.00
38400;BME280;24180;42.676;23.320;2022-12-18T06:32:32;95837.97;;;3.25;100.00
38400;BME280;24180;42.676;23.320;2022-12-18T06:34:57;95866.47;;;3.37;100.00
38400;BME280;24180;42.676;23.320;2022-12-18T06:37:23;95877.69;;;3.51;100.00
38400;BME280;24180;42.676;23.320;2022-12-18T06:39:51;95880.19;;;3.53;100.00
38400;BME280;24180;42.676;23.320;2022-12-18T06:42:17;95883.56;;;3.53;100.00
38400;BME280;24180;42.676;23.320;2022-12-18T06:44:42;95893.81;;;3.53;100.00
38400;BME280;24180;42.676;23.320;2022-12-18T06:47:07;95890.44;;;3.53;100.00
38400;BME280;24180;42.676;23.320;2022-12-18T06:49:33;95872.28;;;3.40;100.00
38400;BME280;24180;42.676;23.320;2022-12-18T06:51:58;95904.31;;;3.49;100.00
38400;BME280;24180;42.676;23.320;2022-12-18T06:54:24;95909.06;;;3.56;100.00
38400;BME280;24180;42.676;23.320;2022-12-18T06:56:49;95880.69;;;3.42;100.00
38400;BME280;24180;42.676;23.320;2022-12-18T06:59:15;95883.25;;;3.42;100.00
38400;BME280;24180;42.676;23.320;2022-12-18T07:01:40;95884.00;;;3.27;100.00
38400;BME280;24180;42.676;23.320;2022-12-18T07:04:07;95913.28;;;3.39;100.00
38400;BME280;24180;42.676;23.320;2022-12-18T07:06:32;95909.53;;;3.28;100.00
38400;BME280;24180;42.676;23.320;2022-12-18T07:08:58;95913.72;;;3.48;100.00
38400;BME280;24180;42.676;23.320;2022-12-18T07:11:24;95925.38;;;3.54;100.00
38400;BME280;24180;42.676;23.320;2022-12-18T07:13:50;95900.56;;;3.37;100.00
38400;BME280;24180;42.676;23.320;2022-12-18T07:16:18;95928.72;;;3.56;100.00
38400;BME280;24180;42.676;23.320;2022-12-18T07:18:44;95919.28;;;3.56;100.00
38400;BME280;24180;42.676;23.320;2022-12-18T07:21:13;95899.31;;;3.46;100.00
38400;BME280;24180;42.676;23.320;2022-12-18T07:23:39;95926.88;;;3.58;100.00
38400;BME280;24180;42.676;23.320;2022-12-18T07:26:08;95890.25;;;3.39;100.00
38400;BME280;24180;42.676;23.320;2022-12-18T07:28:35;95898.94;;;3.36;100.00
38400;BME280;24180;42.676;23.320;2022-12-18T07:31:09;95924.66;;;3.33;100.00
38400;BME280;24180;42.676;23.320;2022-12-18T07:33:35;95948.31;;;3.57;100.00
38400;BME280;24180;42.676;23.320;2022-12-18T07:36:02;95909.84;;;3.40;100.00
38400;BME280;24180;42.676;23.320;2022-12-18T07:38:29;95855.66;;;3.13;100.00
38400;BME280;24180;42.676;23.320;2022-12-18T07:40:59;95924.00;;;3.47;100.00
38400;BME280;24180;42.676;23.320;2022-12-18T07:43:24;95956.09;;;3.72;100.00
38400;BME280;24180;42.676;23.320;2022-12-18T07:45:50;95929.13;;;3.47;100.00
38400;BME280;24180;42.676;23.320;2022-12-18T07:48:15;95943.13;;;3.40;100.00
38400;BME280;24180;42.676;23.320;2022-12-18T07:50:41;95940.50;;;3.22;100.00
38400;BME280;24180;42.676;23.320;2022-12-18T07:53:06;95934.16;;;2.94;100.00
38400;BME280;24180;42.676;23.320;2022-12-18T07:55:32;95930.44;;;3.01;100.00
38400;BME280;24180;42.676;23.320;2022-12-18T07:58:00;95958.88;;;3.49;100.00
38400;BME280;24180;42.676;23.320;2022-12-18T08:00:26;95968.88;;;3.37;100.00
38400;BME280;24180;42.676;23.320;2022-12-18T08:02:51;95974.28;;;3.12;100.00
38400;BME280;24180;42.676;23.320;2022-12-18T08:05:17;95973.03;;;3.02;100.00
38400;BME280;24180;42.676;23.320;2022-12-18T08:07:42;95921.06;;;2.81;100.00
38400;BME280;24180;42.676;23.320;2022-12-18T08:10:08;95989.53;;;3.13;100.00
38400;BME280;24180;42.676;23.320;2022-12-18T08:12:33;95952.25;;;2.89;100.00
38400;BME280;24180;42.676;23.320;2022-12-18T08:14:59;95956.44;;;2.92;100.00
38400;BME280;24180;42.676;23.320;2022-12-18T08:17:24;95952.25;;;2.89;100.00
38400;BME280;24180;42.676;23.320;2022-12-18T08:19:50;95986.59;;;3.04;100.00
38400;BME280;24180;42.676;23.320;2022-12-18T08:22:15;95990.81;;;3.05;100.00
38400;BME280;24180;42.676;23.320;2022-12-18T08:24:40;96008.72;;;3.05;100.00
38400;BME280;24180;42.676;23.320;2022-12-18T08:27:06;96005.75;;;3.14;100.00
38400;BME280;24180;42.676;23.320;2022-12-18T08:29:31;95967.91;;;2.83;100.00
38400;BME280;24180;42.676;23.320;2022-12-18T08:31:57;96012.59;;;3.13;100.00
38400;BME280;24180;42.676;23.320;2022-12-18T08:34:23;95979.72;;;2.86;100.00
38400;BME280;24180;42.676;23.320;2022-12-18T08:36:48;96019.66;;;3.08;100.00
38400;BME280;24180;42.676;23.320;2022-12-18T08:39:13;96019.16;;;3.19;100.00
38400;BME280;24180;42.676;23.320;2022-12-18T08:41:39;96017.66;;;3.15;100.00
38400;BME280;24180;42.676;23.320;2022-12-18T08:44:04;96010.66;;;3.00;100.00
38400;BME280;24180;42.676;23.320;2022-12-18T08:46:48;96014.88;;;3.01;100.00
38400;BME280;24180;42.676;23.320;2022-12-18T08:49:13;95939.78;;;2.44;100.00
38400;BME280;24180;42.676;23.320;2022-12-18T08:51:40;96018.25;;;3.01;100.00
38400;BME280;24180;42.676;23.320;2022-12-18T08:54:06;96019.34;;;2.96;100.00
38400;BME280;24180;42.676;23.320;2022-12-18T08:56:32;96022.13;;;3.10;100.00
38400;BME280;24180;42.676;23.320;2022-12-18T08:58:58;95992.94;;;2.95;100.00
38400;BME280;24180;42.676;23.320;2022-12-18T09:01:23;95984.72;;;2.89;100.00
38400;BME280;24180;42.676;23.320;2022-12-18T09:03:49;95987.88;;;2.94;100.00
38400;BME280;24180;42.676;23.320;2022-12-18T09:06:17;96015.91;;;3.15;100.00
38400;BME280;24180;42.676;23.320;2022-12-18T09:08:49;96027.53;;;3.04;100.00
38400;BME280;24180;42.676;23.320;2022-12-18T09:11:19;96012.53;;;3.15;100.00
38400;BME280;24180;42.676;23.320;2022-12-18T09:13:46;96018.97;;;3.23;100.00
38400;BME280;24180;42.676;23.320;2022-12-18T09:16:11;96009.13;;;3.33;100.00
38400;BME280;24180;42.676;23.320;2022-12-18T09:18:37;95985.97;;;3.36;100.00
38400;BME280;24180;42.676;23.320;2022-12-18T09:21:10;95981.19;;;3.28;100.00
38400;BME280;24180;42.676;23.320;2022-12-18T09:23:36;95993.22;;;3.26;100.00
38400;BME280;24180;42.676;23.320;2022-12-18T09:26:01;96007.19;;;3.38;100.00
38400;BME280;24180;42.676;23.320;2022-12-18T09:28:27;96012.41;;;3.37;100.00
38400;BME280;24180;42.676;23.320;2022-12-18T09:30:52;96016.97;;;3.49;100.00
38400;BME280;24180;42.676;23.320;2022-12-18T09:33:18;96036.31;;;3.54;100.00
38400;BME280;24180;42.676;23.320;2022-12-18T09:35:44;96039.28;;;3.45;100.00
38400;BME280;24180;42.676;23.320;2022-12-18T09:38:17;96005.34;;;3.23;100.00
38400;BME280;24180;42.676;23.320;2022-12-18T09:40:46;96022.63;;;3.55;100.00
38400;BME280;24180;42.676;23.320;2022-12-18T09:43:17;96031.22;;;3.73;100.00
38400;BME280;24180;42.676;23.320;2022-12-18T09:45:47;96040.16;;;3.82;100.00
38400;BME280;24180;42.676;23.320;2022-12-18T09:48:25;96020.97;;;3.73;100.00
38400;BME280;24180;42.676;23.320;2022-12-18T09:50:53;95998.53;;;3.59;100.00
38400;BME280;24180;42.676;23.320;2022-12-18T09:53:24;96030.47;;;3.88;100.00
38400;BME280;24180;42.676;23.320;2022-12-18T09:55:52;96036.91;;;3.97;100.00
38400;BME280;24180;42.676;23.320;2022-12-18T09:58:30;96034.28;;;4.15;100.00
38400;BME280;24180;42.676;23.320;2022-12-18T10:00:57;96029.19;;;4.33;100.00
38400;BME280;24180;42.676;23.320;2022-12-18T10:03:23;96006.16;;;4.14;100.00
38400;BME280;24180;42.676;23.320;2022-12-18T10:06:16;96030.97;;;4.31;100.00
38400;BME280;24180;42.676;23.320;2022-12-18T10:14:35;96036.91;;;3.97;100.00
38400;BME280;24180;42.676;23.320;2022-12-18T10:17:19;96039.28;;;3.83;100.00
38400;BME280;24180;42.676;23.320;2022-12-18T10:19:51;96002.94;;;3.74;100.00
38400;BME280;24180;42.676;23.320;2022-12-18T10:22:43;96010.66;;;3.56;100.00
38400;BME280;24180;42.676;23.320;2022-12-18T10:27:45;96023.31;;;3.95;100.00
38400;BME280;24180;42.676;23.320;2022-12-18T10:30:15;96021.28;;;4.01;100.00
38400;BME280;24180;42.676;23.320;2022-12-18T10:32:41;96032.41;;;4.19;100.00
38400;BME280;24180;42.676;23.320;2022-12-18T10:35:15;96021.09;;;4.23;100.00
38400;BME280;24180;42.676;23.320;2022-12-18T10:38:06;96001.25;;;4.27;100.00
38400;BME280;24180;42.676;23.320;2022-12-18T10:40:33;96020.78;;;4.46;100.00
38400;BME280;24180;42.676;23.320;2022-12-18T10:43:14;96006.56;;;4.23;100.00
38400;BME280;24180;42.676;23.320;2022-12-18T10:45:41;96031.66;;;4.51;100.00
38400;BME280;24180;42.676;23.320;2022-12-18T10:48:20;96034.63;;;4.44;100.00
38400;BME280;24180;42.676;23.320;2022-12-18T10:50:49;96028.03;;;4.38;100.00
38400;BME280;24180;42.676;23.320;2022-12-18T10:53:24;96027.47;;;4.33;100.00
38400;BME280;24180;42.676;23.320;2022-12-18T10:55:52;96024.13;;;4.48;100.00
38400;BME280;24180;42.676;23.320;2022-12-18T11:01:11;96007.53;;;4.38;100.00
38400;BME280;24180;42.676;23.320;2022-12-18T11:06:06;96026.75;;;4.30;100.00
38400;BME280;24180;42.676;23.320;2022-12-18T11:08:32;96033.47;;;4.32;100.00
38400;BME280;24180;42.676;23.320;2022-12-18T11:10:58;96039.69;;;4.45;100.00
38400;BME280;24180;42.676;23.320;2022-12-18T11:13:26;96002.22;;;4.07;100.00
38400;BME280;24180;42.676;23.320;2022-12-18T11:15:52;96036.56;;;4.39;100.00
38400;BME280;24180;42.676;23.320;2022-12-18T11:18:41;96014.16;;;4.42;100.00
38400;BME280;24180;42.676;23.320;2022-12-18T11:21:07;96015.22;;;4.38;100.00
38400;BME280;24180;42.676;23.320;2022-12-18T11:23:34;96036.94;;;4.31;100.00
38400;BME280;24180;42.676;23.320;2022-12-18T11:26:04;96037.84;;;4.30;100.00
38400;BME280;24180;42.676;23.320;2022-12-18T11:28:40;96015.19;;;4.04;100.00
38400;BME280;24180;42.676;23.320;2022-12-18T11:31:28;96010.03;;;3.87;100.00
38400;BME280;24180;42.676;23.320;2022-12-18T11:34:05;96040.94;;;4.37;100.00
38400;BME280;24180;42.676;23.320;2022-12-18T11:36:43;96018.00;;;4.34;100.00
38400;BME280;24180;42.676;23.320;2022-12-18T11:41:47;96005.88;;;4.37;100.00
38400;BME280;24180;42.676;23.320;2022-12-18T11:44:49;96040.19;;;4.69;100.00
38400;BME280;24180;42.676;23.320;2022-12-18T11:47:37;96044.81;;;4.45;100.00
38400;BME280;24180;42.676;23.320;2022-12-18T11:50:13;96017.78;;;4.21;100.00
38400;BME280;24180;42.676;23.320;2022-12-18T11:52:40;96053.84;;;4.35;100.00
38400;BME280;24180;42.676;23.320;2022-12-18T12:00:36;96024.50;;;4.23;100.00
38400;BME280;24180;42.676;23.320;2022-12-18T12:03:21;95979.22;;;3.88;100.00
38400;BME280;24180;42.676;23.320;2022-12-18T12:08:53;96036.34;;;4.43;100.00
38400;BME280;24180;42.676;23.320;2022-12-18T12:14:03;96033.34;;;4.52;100.00
38400;BME280;24180;42.676;23.320;2022-12-18T12:16:52;96042.38;;;4.42;100.00
38400;BME280;24180;42.676;23.320;2022-12-18T12:20:39;96034.53;;;4.45;100.00
38400;BME280;24180;42.676;23.320;2022-12-18T12:35:56;96047.34;;;4.80;100.00
38400;BME280;24180;42.676;23.320;2022-12-18T12:38:31;96035.75;;;4.72;100.00
38400;BME280;24180;42.676;23.320;2022-12-18T12:41:09;96046.13;;;4.87;100.00
38400;BME280;24180;42.676;23.320;2022-12-18T12:43:58;96053.91;;;4.85;100.00
38400;BME280;24180;42.676;23.320;2022-12-18T12:46:26;96037.53;;;4.70;100.00
38400;BME280;24180;42.676;23.320;2022-12-18T12:49:07;96005.50;;;4.45;100.00
38400;BME280;24180;42.676;23.320;2022-12-18T12:51:37;96042.06;;;4.65;100.00
38400;BME280;24180;42.676;23.320;2022-12-18T12:54:17;96041.69;;;4.56;100.00
38400;BME280;24180;42.676;23.320;2022-12-18T12:59:57;96040.53;;;4.61;100.00
38400;BME280;24180;42.676;23.320;2022-12-18T13:07:41;96055.66;;;4.50;100.00
38400;BME280;24180;42.676;23.320;2022-12-18T13:20:34;96076.88;;;4.18;100.00
38400;BME280;24180;42.676;23.320;2022-12-18T13:23:00;96063.69;;;4.08;100.00
38400;BME280;24180;42.676;23.320;2022-12-18T13:25:36;96060.19;;;3.92;100.00
38400;BME280;24180;42.676;23.320;2022-12-18T13:28:14;96084.88;;;4.12;100.00
38400;BME280;24180;42.676;23.320;2022-12-18T13:30:46;96043.00;;;3.94;100.00
38400;BME280;24180;42.676;23.320;2022-12-18T13:51:50;96071.16;;;4.13;100.00
38400;BME280;24180;42.676;23.320;2022-12-18T13:54:33;96058.47;;;4.10;100.00
38400;BME280;24180;42.676;23.320;2022-12-18T13:57:01;96094.94;;;4.34;100.00
38400;BME280;24180;42.676;23.320;2022-12-18T13:59:32;96108.88;;;4.28;100.00
38400;BME280;24180;42.676;23.320;2022-12-18T14:02:01;96051.34;;;3.81;100.00
38400;BME280;24180;42.676;23.320;2022-12-18T14:04:33;96093.13;;;4.00;100.00
38400;BME280;24180;42.676;23.320;2022-12-18T14:12:36;96113.81;;;4.14;100.00
38400;BME280;24180;42.676;23.320;2022-12-18T14:17:59;96107.53;;;4.02;100.00
38400;BME280;24180;42.676;23.320;2022-12-18T14:20:26;96110.81;;;3.87;100.00
38400;BME280;24180;42.676;23.320;2022-12-18T14:22:52;96129.72;;;4.03;100.00
38400;BME280;24180;42.676;23.320;2022-12-18T14:25:21;96132.22;;;4.05;100.00
38400;BME280;24180;42.676;23.320;2022-12-18T14:28:03;96125.84;;;3.95;100.00
38400;BME280;24180;42.676;23.320;2022-12-18T14:30:43;96118.91;;;3.97;100.00
38400;BME280;24180;42.676;23.320;2022-12-18T14:33:12;96103.63;;;3.76;100.00
38400;BME280;24180;42.676;23.320;2022-12-18T14:35:52;96123.81;;;3.83;100.00
38400;BME280;24180;42.676;23.320;2022-12-18T14:38:25;96124.31;;;3.91;100.00
38400;BME280;24180;42.676;23.320;2022-12-18T14:41:02;96134.06;;;3.83;100.00
38400;BME280;24180;42.676;23.320;2022-12-18T14:43:31;96101.25;;;3.72;100.00
38400;BME280;24180;42.676;23.320;2022-12-18T14:45:57;96057.84;;;3.50;100.00
38400;BME280;24180;42.676;23.320;2022-12-18T14:48:38;96128.53;;;3.92;100.00
38400;BME280;24180;42.676;23.320;2022-12-18T14:51:05;96121.81;;;3.89;100.00
38400;BME280;24180;42.676;23.320;2022-12-18T14:53:37;96120.31;;;3.85;100.00
38400;BME280;24180;42.676;23.320;2022-12-18T14:56:17;96076.81;;;3.46;100.00